Time;durP1;ratioP1;P1;durP2;ratioP2;P2;SDS_P1;SDS_P2;PMS_P1;PMS_P2;Temp;Humidity;BMP_temperature;BMP_pressure;BME280_temperature;BME280_humidity;BME280_pressure;Samples;Min_cycle;Max_cycle;Signal;HPM_P1;HPM_P2
2021/04/08 00:00:00;;;;;;;7.33;4.93;;;;;;;1.95;65.75;99532.52;1646524;85;21798;-78
2021/04/08 00:02:27;;;;;;;6.70;4.00;;;;;;;1.99;65.55;99536.16;1640587;85;21166;-77
2021/04/08 00:04:54;;;;;;;5.27;3.80;;;;;;;1.94;65.64;99537.91;1646189;85;21153;-79
2021/04/08 00:07:22;;;;;;;4.43;3.10;;;;;;;1.93;65.50;99540.22;1636150;85;21225;-78
2021/04/08 00:09:49;;;;;;;4.23;3.47;;;;;;;1.91;65.79;99539.55;1654773;85;21182;-81
2021/04/08 00:12:16;;;;;;;4.40;4.00;;;;;;;1.88;65.85;99541.16;1654394;84;21075;-78
2021/04/08 00:14:43;;;;;;;4.50;3.80;;;;;;;1.86;65.99;99543.11;1618146;86;21239;-77
2021/04/08 00:17:10;;;;;;;4.23;3.83;;;;;;;1.85;65.95;99549.36;1649156;84;21264;-78
2021/04/08 00:19:37;;;;;;;3.93;3.63;;;;;;;1.84;66.08;99555.09;1651915;84;21187;-78
2021/04/08 00:22:04;;;;;;;4.00;3.13;;;;;;;1.83;66.28;99554.77;1658686;84;21182;-78
2021/04/08 00:24:32;;;;;;;3.80;3.37;;;;;;;1.85;66.07;99559.37;1649155;85;21342;-79
2021/04/08 00:27:00;;;;;;;5.60;4.30;;;;;;;1.83;66.32;99565.28;1631292;85;21241;-75
2021/04/08 00:29:27;;;;;;;3.53;3.23;;;;;;;1.84;66.12;99571.35;1632106;85;21408;-79
2021/04/08 00:31:54;;;;;;;5.20;3.83;;;;;;;1.79;66.33;99568.34;1629070;86;21272;-78
2021/04/08 00:34:22;;;;;;;5.97;3.90;;;;;;;1.79;66.34;99576.22;1663531;84;21254;-79
2021/04/08 00:36:50;;;;;;;5.97;4.03;;;;;;;1.75;66.48;99579.64;1683743;83;21192;-74
2021/04/08 00:39:17;;;;;;;5.87;4.40;;;;;;;1.74;66.46;99580.13;1686666;83;21234;-79
2021/04/08 00:41:45;;;;;;;7.97;5.20;;;;;;;1.70;66.13;99584.04;1689797;83;21409;-78
2021/04/08 00:44:11;;;;;;;6.00;5.30;;;;;;;1.70;66.35;99587.98;1680835;83;21196;-75
2021/04/08 00:46:39;;;;;;;7.23;5.00;;;;;;;1.68;66.33;99590.43;1691230;84;21662;-79
2021/04/08 00:49:06;;;;;;;5.23;4.73;;;;;;;1.68;66.47;99588.62;1689040;83;21165;-78
2021/04/08 00:51:34;;;;;;;5.97;4.40;;;;;;;1.69;66.51;99588.94;1677830;84;21188;-79
2021/04/08 00:54:01;;;;;;;5.37;4.37;;;;;;;1.68;66.54;99589.94;1677327;83;21670;-77
2021/04/08 00:56:28;;;;;;;4.90;4.23;;;;;;;1.70;66.39;99595.86;1674669;84;21107;-74
2021/04/08 00:58:56;;;;;;;6.30;4.27;;;;;;;1.68;66.55;99596.50;1655628;84;21251;-77
2021/04/08 01:01:23;;;;;;;5.83;4.57;;;;;;;1.70;66.36;99601.12;1623319;86;21792;-77
2021/04/08 01:03:51;;;;;;;5.20;4.00;;;;;;;1.67;66.52;99602.72;1646047;85;21221;-78
2021/04/08 01:06:18;;;;;;;4.53;4.13;;;;;;;1.70;67.31;99597.17;1640721;85;21242;-80
2021/04/08 01:08:45;;;;;;;5.40;3.17;;;;;;;1.67;66.90;99604.03;1642540;87;21225;-74
2021/04/08 01:11:12;;;;;;;4.80;3.80;;;;;;;1.66;66.62;99603.70;1638270;85;21197;-79
2021/04/08 01:13:41;;;;;;;5.43;4.40;;;;;;;1.61;66.95;99604.63;1640565;85;21315;-79
2021/04/08 01:16:17;;;;;;;4.90;4.03;;;;;;;1.60;66.53;99604.31;1619817;86;21185;-75
2021/04/08 01:19:08;;;;;;;6.20;4.37;;;;;;;1.57;66.33;99605.09;1631696;85;21446;-79
2021/04/08 01:21:43;;;;;;;7.37;5.40;;;;;;;1.56;66.37;99617.38;1647850;85;21221;-79
2021/04/08 01:24:38;;;;;;;6.27;5.10;;;;;;;1.51;66.34;99615.20;1628166;85;21644;-78
2021/04/08 01:27:27;;;;;;;4.60;4.00;;;;;;;1.56;66.40;99618.69;1612411;87;22370;-74
2021/04/08 01:30:12;;;;;;;6.10;4.57;;;;;;;1.53;66.52;99616.38;1640551;85;21217;-80
2021/04/08 01:32:51;;;;;;;6.57;4.73;;;;;;;1.55;66.63;99626.25;1640355;85;21379;-81
2021/04/08 01:35:30;;;;;;;5.60;4.53;;;;;;;1.28;66.44;99586.38;1654113;85;21138;-76
2021/04/08 01:38:13;;;;;;;5.10;4.20;;;;;;;1.53;66.30;99630.33;1653032;86;21220;-82
2021/04/08 01:40:42;;;;;;;4.97;4.53;;;;;;;1.52;66.37;99639.17;1653067;85;21443;-77
2021/04/08 01:43:12;;;;;;;5.40;4.90;;;;;;;1.54;66.42;99641.19;1638281;86;21185;-79
2021/04/08 01:45:40;;;;;;;8.77;6.03;;;;;;;1.55;66.29;99639.38;1660929;84;21549;-78
2021/04/08 01:48:08;;;;;;;7.40;5.13;;;;;;;1.56;66.15;99648.90;1641925;86;21238;-79
2021/04/08 01:50:36;;;;;;;7.00;5.07;;;;;;;1.54;66.31;99646.91;1661028;85;21177;-75
2021/04/08 01:53:04;;;;;;;6.07;4.77;;;;;;;1.57;66.44;99649.25;1654825;85;21319;-73
2021/04/08 01:55:36;;;;;;;5.63;5.00;;;;;;;1.53;66.50;99653.16;1665908;85;21073;-79
2021/04/08 01:58:05;;;;;;;7.07;5.23;;;;;;;1.54;66.33;99660.89;1662838;85;21320;-79
2021/04/08 02:00:33;;;;;;;5.60;4.93;;;;;;;1.51;66.25;99666.92;1644882;85;21508;-79
2021/04/08 02:03:02;;;;;;;5.67;4.40;;;;;;;1.52;66.16;99671.18;1605171;88;21156;-79
2021/04/08 02:05:30;;;;;;;5.73;5.23;;;;;;;1.49;66.32;99676.25;1606007;87;21253;-79
2021/04/08 02:07:58;;;;;;;7.20;4.73;;;;;;;1.34;66.54;99652.27;1612140;87;21205;-79
2021/04/08 02:10:29;;;;;;;6.10;5.50;;;;;;;1.47;66.41;99686.08;1660286;85;21224;-80
2021/04/08 02:12:58;;;;;;;7.77;5.60;;;;;;;1.48;66.70;99682.47;1656449;84;21082;-81
2021/04/08 02:15:25;;;;;;;6.30;5.63;;;;;;;1.47;66.52;99690.02;1652446;85;21229;-80
2021/04/08 02:17:57;;;;;;;7.40;6.10;;;;;;;1.48;66.50;99698.72;1642743;85;21200;-81
2021/04/08 02:20:31;;;;;;;8.00;5.80;;;;;;;1.43;66.54;99701.80;1636055;85;21751;-81
2021/04/08 02:23:02;;;;;;;7.23;6.10;;;;;;;1.40;66.36;99711.27;1575226;89;21569;-80
2021/04/08 02:25:35;;;;;;;7.40;6.20;;;;;;;1.34;66.63;99710.53;1614853;86;21311;-80
2021/04/08 02:28:07;;;;;;;6.23;5.70;;;;;;;1.37;66.60;99712.85;1635148;85;21762;-83
2021/04/08 02:30:46;;;;;;;6.17;5.57;;;;;;;1.35;66.80;99716.93;1641013;86;21209;-81
2021/04/08 02:33:05;;;;;;;8.73;6.37;;;;;;;1.41;66.59;99721.27;1633950;85;21242;-81
2021/04/08 02:35:32;;;;;;;6.97;5.90;;;;;;;1.38;66.55;99725.03;1652499;85;21214;-77
2021/04/08 02:37:59;;;;;;;7.33;5.53;;;;;;;1.41;66.34;99728.66;1669660;85;21423;-81
2021/04/08 02:40:26;;;;;;;8.23;6.60;;;;;;;1.39;66.42;99736.34;1660343;85;21230;-79
2021/04/08 02:42:54;;;;;;;8.43;5.93;;;;;;;1.39;66.25;99737.66;1656632;85;21365;-78
2021/04/08 02:45:23;;;;;;;6.83;5.50;;;;;;;1.28;66.23;99736.03;1660841;83;21134;-79
2021/04/08 02:47:50;;;;;;;7.07;6.07;;;;;;;1.21;66.66;99733.66;1656299;85;22212;-78
2021/04/08 02:50:17;;;;;;;6.90;6.27;;;;;;;1.10;66.79;99738.59;1660646;85;21217;-80
2021/04/08 02:53:13;;;;;;;8.70;6.03;;;;;;;0.99;66.67;99730.88;1652598;85;21213;-78
2021/04/08 02:55:50;;;;;;;7.93;6.60;;;;;;;1.05;66.99;99742.92;1657222;85;21154;-81
2021/04/08 02:58:18;;;;;;;;;;;;;;;1.06;67.10;99743.78;1680626;84;21170;-79
2021/04/08 03:01:07;;;;;;;7.65;6.55;;;;;;;1.01;67.13;99745.50;1665154;85;20218;-79
2021/04/08 03:03:49;;;;;;;7.70;6.70;;;;;;;0.97;67.01;99751.52;1661293;85;21210;-80
2021/04/08 03:06:17;;;;;;;7.23;6.53;;;;;;;0.98;67.08;99760.23;1617660;87;21329;-79
2021/04/08 03:08:52;;;;;;;7.33;6.63;;;;;;;1.09;66.92;99768.41;1655660;85;21254;-80
2021/04/08 03:11:34;;;;;;;14.73;7.67;;;;;;;1.09;66.81;99767.95;1658051;85;21230;-80
2021/04/08 03:14:08;;;;;;;8.83;7.93;;;;;;;0.91;66.62;99738.96;1656665;85;21194;-79
2021/04/08 03:16:42;;;;;;;10.20;7.40;;;;;;;1.12;66.57;99781.27;1644125;85;21214;-79
2021/04/08 03:19:15;;;;;;;8.23;7.00;;;;;;;1.15;66.41;99779.19;1660443;85;21201;-79
2021/04/08 03:21:43;;;;;;;10.23;7.97;;;;;;;1.13;66.48;99781.59;1664882;85;22277;-80
2021/04/08 03:24:11;;;;;;;12.07;7.67;;;;;;;1.19;66.37;99793.33;1662495;85;21103;-78
2021/04/08 03:26:39;;;;;;;12.17;9.57;;;;;;;1.17;66.38;99794.80;1663946;85;21222;-78
2021/04/08 03:29:07;;;;;;;11.37;8.93;;;;;;;1.16;66.10;99792.64;1649231;85;21763;-79
2021/04/08 03:31:40;;;;;;;10.63;9.47;;;;;;;1.15;65.94;99805.44;1643042;85;21255;-84
2021/04/08 03:34:09;;;;;;;9.93;8.93;;;;;;;1.16;65.81;99799.70;1662901;84;21103;-85
2021/04/08 03:36:39;;;;;;;10.80;9.43;;;;;;;1.14;65.45;99809.52;1661023;84;21166;-83
2021/04/08 03:39:08;;;;;;;13.97;10.27;;;;;;;1.13;65.35;99810.00;1665514;85;21613;-84
2021/04/08 03:41:38;;;;;;;13.67;10.07;;;;;;;0.93;65.34;99795.25;1641689;85;21220;-84
2021/04/08 03:44:09;;;;;;;18.97;11.60;;;;;;;1.10;64.76;99816.02;1666507;82;21210;-85
2021/04/08 03:46:37;;;;;;;14.50;11.07;;;;;;;1.13;64.64;99815.72;1663691;85;21248;-84
2021/04/08 03:49:11;;;;;;;12.33;10.50;;;;;;;1.24;64.92;99818.19;1663441;82;21213;-84
2021/04/08 03:51:41;;;;;;;10.43;9.07;;;;;;;1.39;64.92;99819.07;1654503;85;21335;-86
2021/04/08 03:54:13;;;;;;;11.10;9.00;;;;;;;1.63;64.07;99819.91;1654264;85;21183;-88
2021/04/08 03:56:47;;;;;;;11.00;9.03;;;;;;;1.85;63.54;99826.62;1656309;83;21127;-83
2021/04/08 03:59:18;;;;;;;14.17;11.63;;;;;;;2.18;61.35;99827.00;1647179;85;21336;-92
2021/04/08 04:01:47;;;;;;;13.40;10.33;;;;;;;2.49;61.33;99830.98;1661524;85;21099;-93
2021/04/08 04:04:16;;;;;;;14.80;11.50;;;;;;;2.91;60.16;99828.25;1660477;85;21198;-93
2021/04/08 04:06:51;;;;;;;13.90;11.57;;;;;;;3.43;59.40;99832.78;1648012;84;21187;-93
2021/04/08 04:09:17;;;;;;;13.00;11.60;;;;;;;3.93;57.50;99832.05;1654575;85;21700;-92
2021/04/08 04:11:50;;;;;;;12.50;10.57;;;;;;;4.43;56.87;99835.22;1659537;84;21119;-92
2021/04/08 04:14:26;;;;;;;11.03;9.80;;;;;;;4.97;54.17;99837.47;1660519;85;21174;-94
2021/04/08 04:16:55;;;;;;;10.77;9.60;;;;;;;5.47;53.66;99835.63;1644165;85;21660;-94
2021/04/08 04:19:26;;;;;;;11.10;9.87;;;;;;;5.65;51.74;99790.45;1657560;85;21234;-92
2021/04/08 04:21:54;;;;;;;13.03;10.10;;;;;;;6.46;49.79;99837.48;1651941;85;21182;-92
2021/04/08 04:24:22;;;;;;;11.23;10.03;;;;;;;6.95;49.36;99833.19;1652527;83;21118;-92
2021/04/08 04:26:49;;;;;;;11.37;8.47;;;;;;;7.49;47.56;99835.38;1652285;85;21206;-93
2021/04/08 04:29:17;;;;;;;9.17;7.97;;;;;;;7.87;46.21;99846.75;1656536;85;21166;-90
2021/04/08 04:31:46;;;;;;;9.33;8.43;;;;;;;8.16;46.05;99846.44;1623392;85;21214;-90
2021/04/08 04:34:13;;;;;;;12.60;9.17;;;;;;;8.36;44.55;99842.20;1620168;85;21305;-92
2021/04/08 04:36:41;;;;;;;9.20;8.30;;;;;;;8.43;44.40;99823.70;1623855;84;21374;-93
2021/04/08 04:39:10;;;;;;;10.33;9.33;;;;;;;8.98;43.06;99842.67;1631003;83;21215;-89
2021/04/08 04:41:38;;;;;;;9.97;8.90;;;;;;;9.29;42.63;99845.01;1625298;83;21346;-87
2021/04/08 04:44:08;;;;;;;9.53;8.43;;;;;;;9.63;42.11;99847.94;1633580;82;21162;-91
2021/04/08 04:46:37;;;;;;;8.93;8.07;;;;;;;9.97;40.27;99860.42;1631785;82;21190;-90
2021/04/08 04:49:07;;;;;;;9.93;8.90;;;;;;;10.29;40.19;99862.95;1629587;86;21203;-92
2021/04/08 04:51:34;;;;;;;9.97;8.97;;;;;;;10.39;38.82;99861.79;1628429;86;21264;-91
2021/04/08 04:54:02;;;;;;;8.93;7.93;;;;;;;10.55;38.50;99865.45;1628712;86;21227;-92
2021/04/08 04:56:31;;;;;;;9.63;8.40;;;;;;;10.65;38.39;99861.88;1618426;83;21257;-92
2021/04/08 04:59:00;;;;;;;9.93;8.37;;;;;;;10.65;38.05;99866.40;1607603;87;21155;-93
2021/04/08 05:01:29;;;;;;;10.10;8.17;;;;;;;10.61;38.47;99868.64;1628878;85;21080;-92
2021/04/08 05:03:58;;;;;;;8.83;7.67;;;;;;;10.16;38.61;99765.67;1622209;86;21191;-92
2021/04/08 05:06:26;;;;;;;9.93;8.77;;;;;;;11.02;37.94;99859.72;1625961;86;21232;-94
2021/04/08 05:08:55;;;;;;;10.10;8.97;;;;;;;11.33;36.83;99854.30;1623658;86;21336;-92
2021/04/08 05:11:24;;;;;;;10.67;9.33;;;;;;;11.60;37.10;99852.95;1627230;84;21139;-93
2021/04/08 05:13:51;;;;;;;10.40;9.40;;;;;;;11.69;36.38;99851.72;1630704;86;21190;-94
2021/04/08 05:16:20;;;;;;;10.10;8.27;;;;;;;11.82;36.02;99857.55;1641045;84;21199;-91
2021/04/08 05:18:51;;;;;;;10.57;8.63;;;;;;;11.97;35.67;99862.17;1612273;86;21247;-92
2021/04/08 05:21:20;;;;;;;11.97;8.20;;;;;;;11.94;35.40;99833.72;1618264;86;21244;-92
2021/04/08 05:23:47;;;;;;;11.20;8.13;;;;;;;12.05;35.83;99875.33;1632065;84;21096;-91
2021/04/08 05:26:14;;;;;;;10.37;9.40;;;;;;;12.03;35.53;99868.53;1613391;86;21482;-89
2021/04/08 05:28:41;;;;;;;10.23;9.23;;;;;;;11.87;35.43;99882.61;1625076;86;21195;-91
2021/04/08 05:31:09;;;;;;;10.67;9.57;;;;;;;11.45;35.92;99866.02;1622998;86;22275;-89
2021/04/08 05:33:36;;;;;;;9.17;8.27;;;;;;;11.29;36.83;99881.91;1635276;85;21139;-90
2021/04/08 05:36:12;;;;;;;9.37;8.47;;;;;;;11.40;37.26;99889.01;1660628;85;21209;-89
2021/04/08 05:38:39;;;;;;;13.23;8.63;;;;;;;11.60;36.68;99885.83;1645781;84;21374;-87
2021/04/08 05:41:08;;;;;;;10.70;9.70;;;;;;;11.55;36.61;99888.81;1661870;85;21245;-87
2021/04/08 05:43:37;;;;;;;11.03;8.67;;;;;;;11.34;37.55;99892.47;1661465;85;21238;-87
2021/04/08 05:46:09;;;;;;;10.73;9.53;;;;;;;10.94;37.70;99899.89;1637905;84;21267;-88
2021/04/08 05:48:39;;;;;;;12.07;10.50;;;;;;;10.38;38.61;99905.42;1622458;84;21223;-86
2021/04/08 05:51:07;;;;;;;11.93;10.93;;;;;;;9.61;40.08;99901.34;1639562;84;21241;-87
2021/04/08 05:53:36;;;;;;;15.57;12.50;;;;;;;8.89;41.67;99913.76;1640296;84;21118;-88
2021/04/08 05:56:06;;;;;;;16.67;13.40;;;;;;;8.37;42.57;99910.23;1607151;87;21314;-87
2021/04/08 05:58:33;;;;;;;14.20;12.70;;;;;;;7.99;43.74;99910.32;1607131;86;21132;-86
2021/04/08 06:01:03;;;;;;;16.73;14.40;;;;;;;7.96;44.61;99919.97;1617363;87;21071;-91
2021/04/08 06:03:32;;;;;;;15.47;13.60;;;;;;;8.16;44.40;99917.61;1643463;84;21203;-90
2021/04/08 06:06:00;;;;;;;15.60;14.00;;;;;;;8.54;44.35;99926.00;1659155;86;21234;-90
2021/04/08 06:08:29;;;;;;;17.63;15.20;;;;;;;8.79;43.70;99931.81;1605416;88;21203;-90
2021/04/08 06:10:59;;;;;;;15.77;14.13;;;;;;;8.80;43.09;99937.95;1642824;86;21185;-88
2021/04/08 06:13:28;;;;;;;18.93;12.67;;;;;;;8.74;43.47;99942.20;1645967;85;21186;-91
2021/04/08 06:15:57;;;;;;;14.17;12.67;;;;;;;8.96;43.63;99947.04;1618494;86;21182;-91
2021/04/08 06:18:24;;;;;;;13.23;11.87;;;;;;;9.29;43.07;99943.41;1595853;87;21571;-89
2021/04/08 06:20:51;;;;;;;17.83;12.50;;;;;;;9.53;42.69;99946.69;1640581;86;21152;-89
2021/04/08 06:23:19;;;;;;;12.43;11.23;;;;;;;9.67;42.38;99940.99;1637560;84;21569;-85
2021/04/08 06:25:46;;;;;;;13.47;11.57;;;;;;;9.65;42.12;99943.02;1637998;86;21224;-87
2021/04/08 06:28:18;;;;;;;13.87;12.37;;;;;;;9.55;42.44;99946.83;1640318;86;21197;-89
2021/04/08 06:30:45;;;;;;;13.80;12.40;;;;;;;9.43;42.93;99944.87;1639288;86;21242;-86
2021/04/08 06:33:13;;;;;;;16.50;14.80;;;;;;;9.31;43.41;99950.69;1640078;85;21325;-87
2021/04/08 06:35:41;;;;;;;17.40;15.30;;;;;;;9.30;43.06;99934.92;1641757;86;21221;-87
2021/04/08 06:38:10;;;;;;;15.33;13.80;;;;;;;9.38;43.36;99948.59;1599876;86;21288;-87
2021/04/08 06:40:37;;;;;;;14.97;13.47;;;;;;;9.34;43.13;99953.47;1594386;89;21205;-85
2021/04/08 06:43:10;;;;;;;13.30;11.90;;;;;;;9.26;43.22;99956.27;1592437;87;21223;-85
2021/04/08 06:45:52;;;;;;;13.93;11.77;;;;;;;9.26;44.00;99959.73;1580646;84;21184;-84
2021/04/08 06:48:44;;;;;;;13.08;11.15;;;;;;;9.28;43.31;99967.53;1632179;83;21387;-88
2021/04/08 06:51:18;;;;;;;17.63;13.53;;;;;;;8.88;43.60;99966.58;1621542;87;21205;-86
2021/04/08 06:53:48;;;;;;;13.33;11.93;;;;;;;8.56;44.38;99973.13;1579477;88;21196;-86
2021/04/08 06:56:16;;;;;;;13.60;12.07;;;;;;;8.52;44.96;99971.34;1624954;86;21274;-80
2021/04/08 06:58:44;;;;;;;14.07;12.67;;;;;;;8.45;44.81;99975.73;1602656;87;21674;-81
2021/04/08 07:01:13;;;;;;;22.80;12.47;;;;;;;8.34;45.54;99981.47;1614801;85;21273;-81
2021/04/08 07:03:40;;;;;;;14.40;12.40;;;;;;;8.14;45.98;99978.55;1637474;86;21397;-80
2021/04/08 07:06:08;;;;;;;14.73;11.90;;;;;;;7.75;46.29;99954.34;1623145;87;21372;-80
2021/04/08 07:08:35;;;;;;;13.90;12.00;;;;;;;7.67;48.04;99983.61;1639056;86;21185;-83
2021/04/08 07:11:02;;;;;;;13.30;11.87;;;;;;;7.52;47.96;99980.90;1639687;86;21204;-82
2021/04/08 07:13:32;;;;;;;16.33;13.17;;;;;;;7.25;48.58;99988.84;1639692;86;21208;-83
2021/04/08 07:16:00;;;;;;;13.40;12.07;;;;;;;6.94;49.59;99994.98;1611916;87;21373;-83
2021/04/08 07:18:28;;;;;;;12.97;11.77;;;;;;;6.69;50.36;99999.58;1639766;86;21234;-79
2021/04/08 07:20:57;;;;;;;12.80;11.53;;;;;;;6.45;50.80;99995.17;1639336;86;21221;-77
2021/04/08 07:23:25;;;;;;;15.23;13.53;;;;;;;6.39;50.86;100005.95;1603284;87;21752;-78
2021/04/08 07:26:11;;;;;;;15.30;13.83;;;;;;;6.38;51.39;100007.75;1630339;84;21210;-79
2021/04/08 07:28:42;;;;;;;13.00;11.70;;;;;;;6.34;51.24;100005.11;1636985;85;21356;-78
2021/04/08 07:31:30;;;;;;;16.20;13.83;;;;;;;6.28;52.04;100005.80;1653341;84;21150;-78
2021/04/08 07:34:04;;;;;;;;;;;;;;;6.22;51.85;100018.39;1657628;84;21244;-77
2021/04/08 07:36:37;;;;;;;15.63;13.53;;;;;;;6.15;52.33;100012.92;1659168;85;20267;-76
2021/04/08 07:39:09;;;;;;;17.77;13.50;;;;;;;6.12;52.37;100009.31;1627743;86;21191;-78
2021/04/08 07:41:37;;;;;;;15.30;13.70;;;;;;;6.09;52.34;100022.86;1625612;86;21251;-77
2021/04/08 07:44:09;;;;;;;14.43;13.03;;;;;;;6.07;52.26;100019.56;1637989;83;21177;-82
2021/04/08 07:46:41;;;;;;;15.13;13.27;;;;;;;6.07;52.88;100029.33;1669394;83;21271;-81
2021/04/08 07:49:33;;;;;;;15.23;12.60;;;;;;;6.11;52.59;100032.78;1670397;83;21224;-81
2021/04/08 07:52:29;;;;;;;15.40;13.27;;;;;;;6.10;52.84;100027.66;1671066;83;21165;-81
2021/04/08 07:55:13;;;;;;;14.43;12.93;;;;;;;6.06;52.98;100032.95;1677176;83;21331;-82
2021/04/08 07:57:55;;;;;;;14.87;13.40;;;;;;;6.08;52.63;100041.04;1622912;85;21174;-81
2021/04/08 08:00:51;;;;;;;15.30;13.80;;;;;;;6.18;52.63;100034.28;1628955;85;21433;-82
2021/04/08 08:03:26;;;;;;;15.17;13.57;;;;;;;6.21;52.54;100040.03;1621950;86;21336;-81
2021/04/08 08:05:58;;;;;;;17.80;14.17;;;;;;;6.14;52.92;100042.20;1619036;86;21348;-80
2021/04/08 08:08:43;;;;;;;16.53;13.77;;;;;;;6.06;53.17;100049.64;1628919;88;21177;-81
2021/04/08 08:11:16;;;;;;;18.00;14.90;;;;;;;6.02;52.94;100059.73;1607325;86;21682;-82
2021/04/08 08:13:53;;;;;;;15.27;13.63;;;;;;;6.04;53.03;100061.71;1666941;84;21171;-83
2021/04/08 08:16:31;;;;;;;17.42;14.05;;;;;;;6.05;54.12;100062.56;1660104;84;21222;-83
2021/04/08 08:18:59;;;;;;;15.28;13.78;;;;;;;6.03;53.55;100057.43;1671384;84;21226;-82
2021/04/08 08:21:35;;;;;;;14.10;12.60;;;;;;;6.02;53.42;100055.77;1679432;84;21329;-82
2021/04/08 08:24:13;;;;;;;16.27;14.23;;;;;;;6.07;52.80;100062.41;1673256;84;21619;-81
2021/04/08 08:26:45;;;;;;;13.53;12.13;;;;;;;6.12;53.81;100071.50;1687153;84;21160;-81
2021/04/08 08:29:17;;;;;;;15.60;13.97;;;;;;;6.24;53.74;100065.36;1691555;84;21192;-82
2021/04/08 08:31:54;;;;;;;13.70;12.17;;;;;;;6.39;52.58;100066.84;1684538;84;21335;-81
2021/04/08 08:34:32;;;;;;;14.43;12.93;;;;;;;6.45;52.12;100068.80;1674473;84;21133;-83
2021/04/08 08:37:09;;;;;;;12.57;11.27;;;;;;;6.52;51.93;100076.92;1654955;85;21176;-83
2021/04/08 08:39:47;;;;;;;15.55;13.13;;;;;;;6.49;51.47;100082.03;1664760;85;21176;-83
2021/04/08 08:42:20;;;;;;;15.27;12.27;;;;;;;6.43;51.22;100078.73;1669548;85;21222;-83
2021/04/08 08:44:48;;;;;;;15.93;11.57;;;;;;;6.35;51.56;100076.11;1649960;85;21231;-83
2021/04/08 08:47:31;;;;;;;12.43;11.23;;;;;;;6.45;52.11;100083.88;1662960;85;21193;-83
2021/04/08 08:50:11;;;;;;;14.13;12.80;;;;;;;6.50;50.99;100078.88;1672316;85;21129;-82
2021/04/08 08:52:42;;;;;;;15.90;13.87;;;;;;;6.56;50.75;100088.82;1676443;85;21650;-83
2021/04/08 08:55:14;;;;;;;13.63;12.40;;;;;;;6.55;50.39;100088.48;1660138;83;21576;-83
2021/04/08 08:57:44;;;;;;;13.60;12.20;;;;;;;6.55;50.38;100086.65;1705905;83;21328;-83
2021/04/08 09:00:12;;;;;;;13.87;12.07;;;;;;;6.58;50.18;100087.65;1716671;83;21300;-81
2021/04/08 09:02:40;;;;;;;13.83;12.23;;;;;;;6.57;49.93;100098.41;1643934;86;21316;-82
2021/04/08 09:05:16;;;;;;;12.63;11.13;;;;;;;6.52;50.04;100098.10;1632092;86;21213;-82
2021/04/08 09:07:49;;;;;;;;;;;;;;;6.52;49.99;100095.45;1639309;86;21323;-82
2021/04/08 09:10:33;;;;;;;12.60;11.27;;;;;;;6.54;50.32;100099.58;1630740;86;20187;-82
2021/04/08 09:12:59;;;;;;;11.50;10.30;;;;;;;6.55;50.66;100089.80;1640177;86;21106;-88
2021/04/08 09:15:28;;;;;;;9.83;8.93;;;;;;;6.56;48.35;100094.13;1627099;86;21348;-85
2021/04/08 09:18:08;;;;;;;11.23;10.13;;;;;;;6.49;47.67;100089.16;1665576;85;21197;-85
2021/04/08 09:20:36;;;;;;;11.83;10.37;;;;;;;6.47;47.98;100088.00;1626182;86;21153;-86
2021/04/08 09:23:12;;;;;;;10.97;9.97;;;;;;;6.59;47.89;100089.79;1687542;83;21225;-85
2021/04/08 09:25:56;;;;;;;12.60;9.30;;;;;;;6.71;46.60;100086.31;1683313;84;21238;-84
2021/04/08 09:28:37;;;;;;;11.43;9.40;;;;;;;6.80;46.67;100091.41;1662717;84;21187;-86
2021/04/08 09:31:09;;;;;;;;;;;;;;;6.90;45.45;100093.87;1671486;83;21504;-85
2021/04/08 09:33:56;;;;;;;11.47;9.13;;;;;;;6.99;45.36;100090.70;1677664;83;20158;-85
2021/04/08 09:36:38;;;;;;;10.03;9.03;;;;;;;7.03;45.26;100090.68;1693790;83;21197;-84
2021/04/08 09:39:14;;;;;;;9.87;8.87;;;;;;;7.07;46.39;100099.12;1694949;83;21335;-83
2021/04/08 09:41:50;;;;;;;9.27;8.33;;;;;;;7.14;45.77;100092.95;1695005;83;21190;-84
2021/04/08 09:44:20;;;;;;;;;;;;;;;7.16;46.51;100098.91;1706821;83;21190;-83
2021/04/08 09:46:58;;;;;;;7.80;7.00;;;;;;;7.24;44.86;100096.72;1687958;84;20182;-85
2021/04/08 09:49:46;;;;;;;9.33;8.43;;;;;;;7.25;43.67;100097.55;1677115;85;21608;-84
2021/04/08 09:52:17;;;;;;;8.77;7.43;;;;;;;7.30;44.12;100096.53;1656633;86;21202;-83
2021/04/08 09:54:52;;;;;;;7.90;7.20;;;;;;;7.43;44.75;100095.47;1683785;85;21308;-86
2021/04/08 09:57:40;;;;;;;8.10;6.63;;;;;;;7.59;43.41;100091.41;1682725;85;22188;-85
2021/04/08 10:00:16;;;;;;;7.13;6.13;;;;;;;7.76;43.06;100097.44;1636519;86;21185;-85
2021/04/08 10:03:04;;;;;;;7.07;6.47;;;;;;;7.92;41.44;100095.16;1664299;85;21931;-85
2021/04/08 10:05:36;;;;;;;7.50;6.13;;;;;;;7.99;41.58;100096.12;1678426;85;21211;-86
2021/04/08 10:08:08;;;;;;;8.83;6.70;;;;;;;8.02;41.54;100092.27;1684391;85;21201;-86
2021/04/08 10:10:42;;;;;;;7.37;6.77;;;;;;;8.06;41.00;100096.72;1678013;84;21335;-86
2021/04/08 10:13:23;;;;;;;6.87;6.27;;;;;;;8.07;40.46;100101.05;1674803;84;21548;-83
2021/04/08 10:15:56;;;;;;;8.27;6.50;;;;;;;8.01;40.87;100103.09;1664905;85;21173;-77
2021/04/08 10:18:29;;;;;;;7.93;6.60;;;;;;;7.96;41.39;100109.73;1655220;85;21165;-76
2021/04/08 10:21:05;;;;;;;5.67;5.17;;;;;;;7.94;40.99;100102.45;1672487;85;21197;-78
2021/04/08 10:23:42;;;;;;;6.00;4.33;;;;;;;7.86;39.92;100102.52;1654524;85;21427;-75
2021/04/08 10:26:11;;;;;;;;;;;;;;;7.77;38.61;100095.61;1683180;85;21188;-77
2021/04/08 10:29:05;;;;;;;3.73;3.17;;;;;;;7.66;38.66;100103.45;1664758;85;20445;-91
2021/04/08 10:31:40;;;;;;;6.23;3.50;;;;;;;7.53;38.40;100103.20;1652802;85;21158;-90
2021/04/08 10:34:18;;;;;;;6.67;4.33;;;;;;;7.47;38.78;100110.03;1659687;82;21100;-86
2021/04/08 10:36:56;;;;;;;5.33;4.73;;;;;;;7.49;39.38;100116.49;1659712;85;21679;-87
2021/04/08 10:39:31;;;;;;;5.13;4.73;;;;;;;7.46;39.96;100122.98;1661989;85;21189;-87
2021/04/08 10:42:11;;;;;;;5.63;5.03;;;;;;;7.39;39.56;100118.03;1666162;85;21192;-86
2021/04/08 10:44:45;;;;;;;5.23;4.73;;;;;;;7.34;40.20;100113.74;1664533;83;21195;-90
2021/04/08 10:47:27;;;;;;;9.30;5.10;;;;;;;7.36;40.15;100111.23;1668066;83;21173;-87
2021/04/08 10:50:04;;;;;;;5.47;4.53;;;;;;;7.38;39.91;100113.72;1656773;85;21274;-88
2021/04/08 10:52:37;;;;;;;5.13;4.70;;;;;;;7.29;38.52;100117.41;1656394;85;21303;-87
2021/04/08 10:55:14;;;;;;;5.60;5.10;;;;;;;7.20;39.39;100109.49;1639107;85;21173;-90
2021/04/08 10:57:43;;;;;;;5.78;4.33;;;;;;;6.80;39.63;100058.81;1632868;85;21180;-90
2021/04/08 11:00:14;;;;;;;4.83;4.33;;;;;;;7.08;39.86;100081.70;1634186;85;21228;-90
2021/04/08 11:02:44;;;;;;;5.27;4.47;;;;;;;7.39;39.59;100112.73;1623295;86;21280;-90
2021/04/08 11:05:24;;;;;;;8.93;5.40;;;;;;;7.53;39.52;100111.16;1620916;86;21196;-90
2021/04/08 11:07:58;;;;;;;5.93;5.33;;;;;;;7.65;39.72;100111.59;1632089;86;21177;-88
2021/04/08 11:10:28;;;;;;;6.13;5.53;;;;;;;7.77;39.16;100104.38;1622632;86;21172;-88
2021/04/08 11:12:59;;;;;;;5.23;4.20;;;;;;;7.89;38.38;100103.98;1626916;85;21072;-89
2021/04/08 11:15:34;;;;;;;5.10;4.53;;;;;;;7.97;38.36;100106.09;1598189;87;21220;-88
2021/04/08 11:18:12;;;;;;;4.83;4.10;;;;;;;8.06;38.16;100116.63;1598641;88;21242;-90
2021/04/08 11:20:48;;;;;;;7.97;4.97;;;;;;;8.09;38.94;100107.81;1587965;89;21185;-89
2021/04/08 11:23:23;;;;;;;5.07;4.57;;;;;;;8.13;38.50;100114.41;1607127;86;21252;-90
2021/04/08 11:26:04;;;;;;;5.33;4.47;;;;;;;8.15;37.81;100113.73;1627809;86;21165;-89
2021/04/08 11:31:16;;;;;;;4.27;3.87;;;;;;;8.20;37.05;100098.61;1813417;77;22956;-87
2021/04/08 11:37:34;;;;;;;6.00;5.37;;;;;;;8.04;38.32;100115.98;1675999;79;21117;-88
2021/04/08 11:40:05;;;;;;;8.83;6.47;;;;;;;7.82;39.12;100129.08;1660987;81;21158;-88
2021/04/08 11:42:39;;;;;;;10.30;6.30;;;;;;;7.71;40.12;100133.46;1659493;84;21128;-89
2021/04/08 11:45:27;;;;;;;9.43;6.00;;;;;;;7.71;41.17;100138.77;1676734;83;21136;-90
2021/04/08 11:48:46;;;;;;;6.10;5.50;;;;;;;7.78;42.93;100144.52;1802259;78;23097;-88
2021/04/08 11:51:23;;;;;;;5.97;5.37;;;;;;;7.64;44.84;100148.42;1774841;79;21156;-91
2021/04/08 11:54:17;;;;;;;6.23;5.63;;;;;;;7.47;45.29;100147.16;1761796;80;21266;-91
2021/04/08 11:56:49;;;;;;;5.47;4.83;;;;;;;7.25;46.30;100152.70;1680837;83;21085;-88
2021/04/08 11:59:21;;;;;;;8.43;5.57;;;;;;;7.17;47.22;100156.72;1682824;83;21171;-90
2021/04/08 12:02:06;;;;;;;9.50;5.83;;;;;;;7.19;46.68;100156.87;1671220;84;21104;-90